Pagina principale
METAR-TAF:

METAR-TAF

Aeroporti :

Aeroporto di Cefalonia

Cefalonia, Grecia

latitudine: 38-07N, longitudine: 020-30E, altezza: 19 m

Osservazione

Il bollettino è stato emesso 38 minuti fa, alle 15:50 UTC
Vento 9 kt da ovest/nord-ovest
Temperature 28°C
Umidità 62%
Pressione 1009 hPa
Visibilità 10 km o più
Poco nuvoloso ad un'altezza di 1800 ft

METAR: LGKF 131550Z 30009KT 9999 FEW018 28/20 Q1009

Ora: 19:28 (16:28 UTC)

Previsione

Il bollettino è stato emesso 2 ore e 28 minuti fa, alle 14:00 UTC
Previsione valida dal 13 alle 15 UTC al 13 alle 24 UTC
Vento 10 kt da nord-ovest
Visibilità 10 km o più
Poco nuvoloso ad un'altezza di 1800 ft

TAF: LGKF 131400Z 1315/1324 32010KT 9999 FEW018

Osservazioni e previsioni meteorologiche di più di 4000 aeroporti (messaggi METAR e TAF).

Le stazioni disponibili sono rappresentate dai dischi gialli e rossi sulla carta.

Puntare il mouse per vedere il nome della stazione.

Clicca sopra per visualizzare le osservazioni e previsioni meteorologiche.

Per cambiare la mappa : fare clic sui pulsanti verdi con una croce nera per ingrandire, il pulsante verde con un trattino per diminuire, o sulla freccia verde per le mappe adiacenti.


METAR-TAF: